createdAt,value
2022-09-28T00:00:42.643Z,13.89
2022-09-28T00:03:09.600Z,13.90
2022-09-28T00:05:36.337Z,13.93
2022-09-28T00:08:03.139Z,13.93
2022-09-28T00:10:29.959Z,13.93
2022-09-28T00:12:56.745Z,13.94
2022-09-28T00:15:24.783Z,13.95
2022-09-28T00:17:51.520Z,13.97
2022-09-28T00:20:19.442Z,13.94
2022-09-28T00:22:46.293Z,13.94
2022-09-28T00:25:13.067Z,13.95
2022-09-28T00:27:40.287Z,13.90
2022-09-28T00:30:07.931Z,13.80
2022-09-28T00:32:34.753Z,13.73
2022-09-28T00:35:01.538Z,13.78
2022-09-28T00:37:28.254Z,13.82
2022-09-28T00:39:54.993Z,13.85
2022-09-28T00:42:24.891Z,13.86
2022-09-28T00:44:56.210Z,13.87
2022-09-28T00:47:41.927Z,13.86
2022-09-28T00:50:13.059Z,13.86
2022-09-28T00:52:45.986Z,13.88
2022-09-28T00:55:21.724Z,13.89
2022-09-28T00:57:53.738Z,13.89
2022-09-28T01:00:20.771Z,13.90
2022-09-28T01:02:48.382Z,13.92
2022-09-28T01:05:18.365Z,13.92
2022-09-28T01:07:46.910Z,13.92
2022-09-28T01:10:14.316Z,13.90
2022-09-28T01:12:41.167Z,13.89
2022-09-28T01:15:08.478Z,13.91
2022-09-28T01:17:58.393Z,13.90
2022-09-28T01:20:39.937Z,13.89
2022-09-28T01:23:37.572Z,13.80
2022-09-28T01:26:44.015Z,13.73
2022-09-28T01:29:17.042Z,13.71
2022-09-28T01:31:49.804Z,13.73
2022-09-28T01:34:20.971Z,13.73
2022-09-28T01:36:50.735Z,13.72
2022-09-28T01:39:27.788Z,13.74
2022-09-28T01:42:01.201Z,13.75
2022-09-28T01:44:31.435Z,13.77
2022-09-28T01:47:04.266Z,13.76
2022-09-28T01:49:42.839Z,13.78
2022-09-28T01:52:27.973Z,13.78
2022-09-28T01:55:01.482Z,13.78
2022-09-28T01:57:39.440Z,13.78
2022-09-28T02:00:08.637Z,13.79
2022-09-28T02:03:06.852Z,13.81
2022-09-28T02:05:49.698Z,13.81
2022-09-28T02:08:29.029Z,13.79
2022-09-28T02:11:06.054Z,13.66
2022-09-28T02:13:53.776Z,13.64
2022-09-28T02:16:30.030Z,13.63
2022-09-28T02:18:57.462Z,13.66
2022-09-28T02:21:29.752Z,13.69
2022-09-28T02:24:01.540Z,13.71
2022-09-28T02:26:35.586Z,13.72
2022-09-28T02:29:02.414Z,13.73
2022-09-28T02:31:29.255Z,13.74
2022-09-28T02:33:57.574Z,13.75
2022-09-28T02:36:26.715Z,13.76
2022-09-28T02:38:53.826Z,13.76
2022-09-28T02:41:26.369Z,13.78
2022-09-28T02:44:16.408Z,13.78
2022-09-28T02:46:55.761Z,13.77
2022-09-28T02:50:09.638Z,13.78
2022-09-28T02:53:03.839Z,13.77
2022-09-28T02:55:40.516Z,13.76
2022-09-28T02:58:25.693Z,13.76
2022-09-28T03:01:02.637Z,13.75
2022-09-28T03:03:50.621Z,13.75
2022-09-28T03:06:30.864Z,13.75
2022-09-28T03:09:04.755Z,13.74
2022-09-28T03:11:39.737Z,13.74
2022-09-28T03:14:07.000Z,13.73
2022-09-28T03:16:46.369Z,13.69
2022-09-28T03:19:14.408Z,13.68
2022-09-28T03:21:41.404Z,13.69
2022-09-28T03:24:10.615Z,13.70
2022-09-28T03:26:38.980Z,13.69
2022-09-28T03:29:06.646Z,13.69
2022-09-28T03:31:35.217Z,13.68
2022-09-28T03:34:02.434Z,13.69
2022-09-28T03:36:29.363Z,13.66
2022-09-28T03:38:56.429Z,13.63
2022-09-28T03:41:25.030Z,13.62
2022-09-28T03:43:51.789Z,13.61
2022-09-28T03:46:18.809Z,13.62
2022-09-28T03:48:49.725Z,13.64
2022-09-28T03:51:16.485Z,13.63
2022-09-28T03:53:43.375Z,13.64
2022-09-28T03:56:13.842Z,13.64
2022-09-28T03:58:42.327Z,13.65
2022-09-28T04:01:16.935Z,13.67
2022-09-28T04:03:46.235Z,13.68
2022-09-28T04:06:14.029Z,13.70
2022-09-28T04:08:40.957Z,13.73
2022-09-28T04:11:08.577Z,13.74
2022-09-28T04:13:35.494Z,13.77
2022-09-28T04:16:02.460Z,13.79
2022-09-28T04:18:33.435Z,13.84
2022-09-28T04:21:23.357Z,13.87
2022-09-28T04:23:55.856Z,13.92
2022-09-28T04:26:25.106Z,13.95
2022-09-28T04:29:10.650Z,14.00
2022-09-28T04:31:53.509Z,14.05
2022-09-28T04:34:23.623Z,14.09
2022-09-28T04:36:51.186Z,14.14
2022-09-28T04:39:21.603Z,14.17
2022-09-28T04:41:51.555Z,14.13
2022-09-28T04:44:18.838Z,14.03
2022-09-28T04:46:47.266Z,14.07
2022-09-28T04:49:29.529Z,14.07
2022-09-28T04:52:06.938Z,14.10
2022-09-28T04:54:34.788Z,14.15
2022-09-28T04:57:03.380Z,14.14
2022-09-28T04:59:30.300Z,14.13
2022-09-28T05:01:57.351Z,14.03
2022-09-28T05:04:39.386Z,13.95
2022-09-28T05:07:20.233Z,13.87
2022-09-28T05:09:46.991Z,13.81
2022-09-28T05:12:15.086Z,13.81
2022-09-28T05:14:42.103Z,13.82
2022-09-28T05:17:10.294Z,13.86
2022-09-28T05:19:57.432Z,14.00
2022-09-28T05:22:24.264Z,14.14
2022-09-28T05:24:51.809Z,14.31
2022-09-28T05:27:18.551Z,14.47
2022-09-28T05:29:52.437Z,14.58
2022-09-28T05:32:44.375Z,14.68
2022-09-28T05:35:18.839Z,14.77
2022-09-28T05:37:47.531Z,14.95
2022-09-28T05:40:14.791Z,15.09
2022-09-28T05:42:42.248Z,15.08
2022-09-28T05:45:10.209Z,15.26
2022-09-28T05:47:43.751Z,15.37
2022-09-28T05:50:11.991Z,15.44
2022-09-28T05:52:39.615Z,15.58
2022-09-28T05:55:08.027Z,15.77
2022-09-28T05:57:35.045Z,16.01
2022-09-28T06:00:06.024Z,16.27
2022-09-28T06:02:39.303Z,16.51
2022-09-28T06:05:08.695Z,16.73
2022-09-28T06:07:35.638Z,16.90
2022-09-28T06:10:02.906Z,17.04
2022-09-28T06:12:39.860Z,17.15
2022-09-28T06:15:12.338Z,17.24
2022-09-28T06:17:39.812Z,17.27
2022-09-28T06:20:26.900Z,17.27
2022-09-28T06:23:07.901Z,17.25
2022-09-28T06:25:34.761Z,17.37
2022-09-28T06:28:05.083Z,17.51
2022-09-28T06:30:34.688Z,17.72
2022-09-28T06:33:02.578Z,17.95
2022-09-28T06:35:30.979Z,18.12
2022-09-28T06:37:59.952Z,18.25
2022-09-28T06:40:28.086Z,18.30
2022-09-28T06:43:00.383Z,18.25
2022-09-28T06:45:52.326Z,18.12
2022-09-28T06:48:42.941Z,17.98
2022-09-28T06:51:12.670Z,17.82
2022-09-28T06:53:53.963Z,17.66
2022-09-28T06:56:41.017Z,17.56
2022-09-28T06:59:07.775Z,17.47
2022-09-28T07:01:36.291Z,17.42
2022-09-28T07:04:42.038Z,17.37
2022-09-28T07:07:31.875Z,17.31
2022-09-28T07:10:11.423Z,17.25
2022-09-28T07:12:44.376Z,17.19
2022-09-28T07:15:32.539Z,17.16
2022-09-28T07:18:03.558Z,17.18
2022-09-28T07:20:38.720Z,17.20
2022-09-28T07:23:19.228Z,17.23
2022-09-28T07:26:25.691Z,17.27
2022-09-28T07:29:18.922Z,17.33
2022-09-28T07:32:17.656Z,17.49
2022-09-28T07:34:58.919Z,17.63
2022-09-28T07:38:00.588Z,17.85
2022-09-28T07:40:48.450Z,17.80
2022-09-28T07:43:20.778Z,17.79
2022-09-28T07:45:52.600Z,17.74
2022-09-28T07:48:20.144Z,17.72
2022-09-28T07:51:25.331Z,17.65
2022-09-28T07:54:10.775Z,17.63
2022-09-28T07:56:44.307Z,17.63
2022-09-28T07:59:26.982Z,17.59
2022-09-28T08:02:20.571Z,17.54
2022-09-28T08:04:48.621Z,17.47
2022-09-28T08:07:20.480Z,17.51
2022-09-28T08:09:55.376Z,17.50
2022-09-28T08:12:27.723Z,17.58
2022-09-28T08:15:13.475Z,17.81
2022-09-28T08:17:59.089Z,18.00
2022-09-28T08:20:51.325Z,18.27
2022-09-28T08:23:19.810Z,18.21
2022-09-28T08:25:52.646Z,18.14
2022-09-28T08:28:20.222Z,17.98
2022-09-28T08:30:49.108Z,18.05
2022-09-28T08:33:42.203Z,18.09
2022-09-28T08:36:28.467Z,18.14
2022-09-28T08:39:01.307Z,18.20
2022-09-28T08:41:37.002Z,18.23
2022-09-28T08:44:26.896Z,18.36
2022-09-28T08:47:59.534Z,18.74
2022-09-28T08:50:49.489Z,19.50
2022-09-28T08:53:27.398Z,20.30
2022-09-28T08:56:37.992Z,20.87
2022-09-28T08:59:12.716Z,21.35
2022-09-28T09:02:03.566Z,21.58
2022-09-28T09:04:33.689Z,21.64
2022-09-28T09:07:58.358Z,21.90
2022-09-28T09:10:42.688Z,21.91
2022-09-28T09:13:37.251Z,22.00
2022-09-28T09:16:19.890Z,21.90
2022-09-28T09:19:20.413Z,21.59
2022-09-28T09:22:17.949Z,21.17
2022-09-28T09:24:54.809Z,20.74
2022-09-28T09:27:37.661Z,20.46
2022-09-28T09:30:18.836Z,20.14
2022-09-28T09:32:53.473Z,20.02
2022-09-28T09:35:38.854Z,20.21
2022-09-28T09:38:55.967Z,20.58
2022-09-28T09:41:57.446Z,21.12
2022-09-28T09:45:17.133Z,21.89
2022-09-28T09:48:14.432Z,23.18
2022-09-28T09:51:23.821Z,23.94
2022-09-28T09:54:04.566Z,24.74
2022-09-28T09:56:37.199Z,24.84
2022-09-28T09:59:24.508Z,24.22
2022-09-28T10:02:28.608Z,23.87
2022-09-28T10:05:24.216Z,23.25
2022-09-28T10:08:03.204Z,22.90
2022-09-28T10:10:35.430Z,22.63
2022-09-28T10:13:21.071Z,22.53
2022-09-28T10:15:50.530Z,22.61
2022-09-28T10:18:28.848Z,22.79
2022-09-28T10:21:15.824Z,22.58
2022-09-28T10:23:55.250Z,22.59
2022-09-28T10:26:37.487Z,22.17
2022-09-28T10:29:14.743Z,22.07
2022-09-28T10:31:51.543Z,21.17
2022-09-28T10:34:38.519Z,20.57
2022-09-28T10:37:15.350Z,20.22
2022-09-28T10:40:05.808Z,19.57
2022-09-28T10:42:36.243Z,19.64
2022-09-28T10:45:18.832Z,19.80
2022-09-28T10:47:46.423Z,20.19
2022-09-28T10:50:24.596Z,20.34
2022-09-28T10:53:19.938Z,20.48
2022-09-28T10:56:20.192Z,20.48
2022-09-28T10:58:48.980Z,20.65
2022-09-28T11:01:31.076Z,20.82
2022-09-28T11:04:01.218Z,20.88
2022-09-28T11:06:36.194Z,20.80
2022-09-28T11:09:21.074Z,20.47
2022-09-28T11:11:48.204Z,20.46
2022-09-28T11:14:43.624Z,20.41
2022-09-28T11:17:17.281Z,20.34
2022-09-28T11:19:45.883Z,20.44
2022-09-28T11:22:29.191Z,20.17
2022-09-28T11:25:33.265Z,19.97
2022-09-28T11:28:04.617Z,19.94
2022-09-28T11:30:54.277Z,19.67
2022-09-28T11:33:36.749Z,19.61
2022-09-28T11:36:45.375Z,19.51
2022-09-28T11:39:37.350Z,19.28
2022-09-28T11:42:16.732Z,19.23
2022-09-28T11:44:47.082Z,19.09
2022-09-28T11:47:21.036Z,18.78
2022-09-28T11:49:57.503Z,18.99
2022-09-28T11:52:27.709Z,19.25
2022-09-28T11:55:02.425Z,19.26
2022-09-28T11:57:36.590Z,19.03
2022-09-28T12:00:20.822Z,18.78
2022-09-28T12:03:07.246Z,18.11
2022-09-28T12:05:40.491Z,17.58
2022-09-28T12:08:28.991Z,16.92
2022-09-28T12:11:11.107Z,16.50
2022-09-28T12:14:00.900Z,16.12
2022-09-28T12:17:05.890Z,15.99
2022-09-28T12:19:44.338Z,15.95
2022-09-28T12:22:21.055Z,16.01
2022-09-28T12:24:52.749Z,15.97
2022-09-28T12:27:28.436Z,15.87
2022-09-28T12:29:55.253Z,15.72
2022-09-28T12:32:28.669Z,15.59
2022-09-28T12:34:56.827Z,15.54
2022-09-28T12:37:40.338Z,15.39
2022-09-28T12:40:22.630Z,15.35
2022-09-28T12:43:17.698Z,15.30
2022-09-28T12:46:11.418Z,15.27
2022-09-28T12:48:58.416Z,15.27
2022-09-28T12:51:54.548Z,15.29
2022-09-28T12:54:42.993Z,15.28
2022-09-28T12:57:34.689Z,15.40
2022-09-28T13:00:26.092Z,15.50
2022-09-28T13:03:31.714Z,15.54
2022-09-28T13:06:07.770Z,15.52
2022-09-28T13:08:55.267Z,15.48
2022-09-28T13:11:22.092Z,15.60
2022-09-28T13:14:13.505Z,15.39
2022-09-28T13:17:03.180Z,15.45
2022-09-28T13:19:36.279Z,15.33
2022-09-28T13:22:24.561Z,15.51
2022-09-28T13:24:55.391Z,15.70
2022-09-28T13:27:46.208Z,15.89
2022-09-28T13:30:15.034Z,15.99
2022-09-28T13:32:44.180Z,16.09
2022-09-28T13:35:21.734Z,16.04
2022-09-28T13:38:17.687Z,16.05
2022-09-28T13:41:06.338Z,15.99
2022-09-28T13:44:00.742Z,16.07
2022-09-28T13:46:40.436Z,16.00
2022-09-28T13:49:49.350Z,15.91
2022-09-28T13:52:54.881Z,15.80
2022-09-28T13:55:24.992Z,15.71
2022-09-28T13:58:00.794Z,15.82
2022-09-28T14:00:47.072Z,15.84
2022-09-28T14:03:27.192Z,15.88
2022-09-28T14:06:00.787Z,15.90
2022-09-28T14:08:58.272Z,15.84
2022-09-28T14:11:42.594Z,15.82
2022-09-28T14:14:13.810Z,15.65
2022-09-28T14:16:44.378Z,15.58
2022-09-28T14:19:14.234Z,15.43
2022-09-28T14:21:56.104Z,15.44
2022-09-28T14:24:45.156Z,15.43
2022-09-28T14:27:23.990Z,15.42
2022-09-28T14:30:05.301Z,15.52
2022-09-28T14:32:37.077Z,15.63
2022-09-28T14:35:07.494Z,15.68
2022-09-28T14:37:56.435Z,15.66
2022-09-28T14:40:49.745Z,15.70
2022-09-28T14:43:35.038Z,15.71
2022-09-28T14:46:11.354Z,15.84
2022-09-28T14:48:57.219Z,15.69
2022-09-28T14:51:26.774Z,15.72
2022-09-28T14:53:56.543Z,15.70
2022-09-28T14:56:25.466Z,15.73
2022-09-28T14:58:58.153Z,15.57
2022-09-28T15:01:26.120Z,15.65
2022-09-28T15:03:56.135Z,15.76
2022-09-28T15:06:24.259Z,15.84
2022-09-28T15:08:51.294Z,15.87
2022-09-28T15:11:27.441Z,15.87
2022-09-28T15:14:06.423Z,15.76
2022-09-28T15:16:33.796Z,15.88
2022-09-28T15:19:10.467Z,15.74
2022-09-28T15:21:40.542Z,15.77
2022-09-28T15:24:28.880Z,15.63
2022-09-28T15:26:56.895Z,15.56
2022-09-28T15:29:25.843Z,15.55
2022-09-28T15:31:54.662Z,15.34
2022-09-28T15:34:46.137Z,15.43
2022-09-28T15:37:16.714Z,15.33
2022-09-28T15:39:44.565Z,15.34
2022-09-28T15:42:11.506Z,15.29
2022-09-28T15:44:39.655Z,15.26
2022-09-28T15:47:16.779Z,15.19
2022-09-28T15:49:53.259Z,15.26
2022-09-28T15:52:26.251Z,15.27
2022-09-28T15:54:54.193Z,15.25
2022-09-28T15:57:29.947Z,15.20
2022-09-28T15:59:59.353Z,15.16
2022-09-28T16:02:27.284Z,15.20
2022-09-28T16:05:00.803Z,15.37
2022-09-28T16:07:56.786Z,15.46
2022-09-28T16:10:35.119Z,15.44
2022-09-28T16:13:23.269Z,15.43
2022-09-28T16:16:00.307Z,15.40
2022-09-28T16:18:29.822Z,15.35
2022-09-28T16:21:24.656Z,15.26
2022-09-28T16:23:55.702Z,15.22
2022-09-28T16:26:33.078Z,15.10
2022-09-28T16:29:00.754Z,14.97
2022-09-28T16:31:33.815Z,14.75
2022-09-28T16:34:09.579Z,14.50
2022-09-28T16:36:46.194Z,14.29
2022-09-28T16:39:16.978Z,14.00
2022-09-28T16:41:48.352Z,13.75
2022-09-28T16:44:21.305Z,13.61
2022-09-28T16:46:48.205Z,13.47
2022-09-28T16:49:20.146Z,13.29
2022-09-28T16:51:47.887Z,13.12
2022-09-28T16:54:37.103Z,12.98
2022-09-28T16:57:06.106Z,12.80
2022-09-28T16:59:32.971Z,12.72
2022-09-28T17:01:59.845Z,12.59
2022-09-28T17:04:27.155Z,12.50
2022-09-28T17:06:55.640Z,12.38
2022-09-28T17:09:23.368Z,12.36
2022-09-28T17:11:56.739Z,12.26
2022-09-28T17:14:24.300Z,12.16
2022-09-28T17:17:13.756Z,12.12
2022-09-28T17:19:40.919Z,12.07
2022-09-28T17:22:09.267Z,11.99
2022-09-28T17:24:36.574Z,11.92
2022-09-28T17:27:03.883Z,11.82
2022-09-28T17:29:30.650Z,11.74
2022-09-28T17:31:57.447Z,11.64
2022-09-28T17:34:24.322Z,11.60
2022-09-28T17:36:51.995Z,11.55
2022-09-28T17:39:19.356Z,11.44
2022-09-28T17:41:46.262Z,11.37
2022-09-28T17:44:16.254Z,11.33
2022-09-28T17:46:46.364Z,11.22
2022-09-28T17:49:14.006Z,11.19
2022-09-28T17:51:40.887Z,11.12
2022-09-28T17:54:08.894Z,11.06
2022-09-28T17:56:36.794Z,10.99
2022-09-28T17:59:10.367Z,10.90
2022-09-28T18:01:39.371Z,10.83
2022-09-28T18:04:08.982Z,10.76
2022-09-28T18:06:37.401Z,10.71
2022-09-28T18:09:05.835Z,10.64
2022-09-28T18:11:33.862Z,10.54
2022-09-28T18:14:00.881Z,10.48
2022-09-28T18:16:28.937Z,10.41
2022-09-28T18:18:56.790Z,10.32
2022-09-28T18:21:23.887Z,10.27
2022-09-28T18:23:50.651Z,10.19
2022-09-28T18:26:19.867Z,10.12
2022-09-28T18:28:47.303Z,10.07
2022-09-28T18:31:15.894Z,9.96
2022-09-28T18:33:50.371Z,9.90
2022-09-28T18:36:17.346Z,9.84
2022-09-28T18:38:44.262Z,9.77
2022-09-28T18:41:15.740Z,9.72
2022-09-28T18:43:51.349Z,9.66
2022-09-28T18:46:18.504Z,9.60
2022-09-28T18:48:47.505Z,9.58
2022-09-28T18:51:14.561Z,9.52
2022-09-28T18:53:41.354Z,9.49
2022-09-28T18:56:11.017Z,9.45
2022-09-28T18:58:39.240Z,9.42
2022-09-28T19:04:00.572Z,9.29
2022-09-28T19:06:27.817Z,9.22
2022-09-28T19:08:57.830Z,9.11
2022-09-28T19:11:25.600Z,8.99
2022-09-28T19:13:54.448Z,8.83
2022-09-28T19:16:24.211Z,8.68
2022-09-28T19:18:53.711Z,8.57
2022-09-28T19:21:21.087Z,8.46
2022-09-28T19:23:53.652Z,8.40
2022-09-28T19:26:23.129Z,8.29
2022-09-28T19:28:50.524Z,8.17
2022-09-28T19:31:17.484Z,8.03
2022-09-28T19:33:48.165Z,7.91
2022-09-28T19:36:18.522Z,7.79
2022-09-28T19:38:45.959Z,7.69
2022-09-28T19:41:39.299Z,7.59
2022-09-28T19:44:10.447Z,7.54
2022-09-28T19:46:39.038Z,7.51
2022-09-28T19:49:11.419Z,7.43
2022-09-28T19:51:51.446Z,7.37
2022-09-28T19:54:33.124Z,7.30
2022-09-28T19:57:07.831Z,7.27
2022-09-28T19:59:36.722Z,7.25
2022-09-28T20:02:05.614Z,7.22
2022-09-28T20:04:32.377Z,7.23
2022-09-28T20:06:59.097Z,7.25
2022-09-28T20:09:25.892Z,7.26
2022-09-28T20:11:53.161Z,7.25
2022-09-28T20:14:21.445Z,7.25
2022-09-28T20:16:50.231Z,7.23
2022-09-28T20:19:19.111Z,7.14
2022-09-28T20:21:48.120Z,7.05
2022-09-28T20:24:16.779Z,6.95
2022-09-28T20:26:44.674Z,6.87
2022-09-28T20:29:11.898Z,6.80
2022-09-28T20:31:38.743Z,6.74
2022-09-28T20:34:06.513Z,6.67
2022-09-28T20:36:33.626Z,6.61
2022-09-28T20:39:04.089Z,6.54
2022-09-28T20:41:36.661Z,6.49
2022-09-28T20:44:05.930Z,6.43
2022-09-28T20:46:34.801Z,6.37
2022-09-28T20:49:02.207Z,6.37
2022-09-28T20:51:28.974Z,6.33
2022-09-28T20:53:57.201Z,6.28
2022-09-28T20:56:37.549Z,6.24
2022-09-28T20:59:07.626Z,6.24
2022-09-28T21:01:35.340Z,6.23
2022-09-28T21:04:04.664Z,6.23
2022-09-28T21:06:34.215Z,6.21
2022-09-28T21:09:01.309Z,6.13
2022-09-28T21:11:29.603Z,6.06
2022-09-28T21:13:59.368Z,6.01
2022-09-28T21:16:28.258Z,5.96
2022-09-28T21:18:55.050Z,5.99
2022-09-28T21:21:23.096Z,6.06
2022-09-28T21:23:54.055Z,6.08
2022-09-28T21:26:26.578Z,6.06
2022-09-28T21:28:58.150Z,6.00
2022-09-28T21:31:29.435Z,5.92
2022-09-28T21:33:57.376Z,5.83
2022-09-28T21:36:25.151Z,5.81
2022-09-28T21:38:52.138Z,5.79
2022-09-28T21:41:18.812Z,5.77
2022-09-28T21:43:45.797Z,5.75
2022-09-28T21:46:12.870Z,5.72
2022-09-28T21:48:39.779Z,5.72
2022-09-28T21:51:09.224Z,5.70
2022-09-28T21:53:37.876Z,5.73
2022-09-28T21:56:07.142Z,5.72
2022-09-28T21:58:35.692Z,5.71
2022-09-28T22:01:34.860Z,5.73
2022-09-28T22:04:01.676Z,5.72
2022-09-28T22:06:28.437Z,5.73
2022-09-28T22:08:55.699Z,5.72
2022-09-28T22:11:25.565Z,5.70
2022-09-28T22:13:57.551Z,5.72
2022-09-28T22:16:27.648Z,5.70
2022-09-28T22:18:54.707Z,5.69
2022-09-28T22:21:26.724Z,5.66
2022-09-28T22:23:53.917Z,5.63
2022-09-28T22:26:23.543Z,5.61
2022-09-28T22:29:08.174Z,5.58
2022-09-28T22:31:37.858Z,5.50
2022-09-28T22:34:05.322Z,5.44
2022-09-28T22:36:32.459Z,5.38
2022-09-28T22:38:59.827Z,5.35
2022-09-28T22:41:27.186Z,5.33
2022-09-28T22:43:55.139Z,5.32
2022-09-28T22:46:25.136Z,5.29
2022-09-28T22:48:57.493Z,5.25
2022-09-28T22:51:26.600Z,5.19
2022-09-28T22:53:53.411Z,5.19
2022-09-28T22:56:20.353Z,5.21
2022-09-28T22:58:47.201Z,5.21
2022-09-28T23:01:15.415Z,5.21
2022-09-28T23:03:42.639Z,5.22
2022-09-28T23:06:10.898Z,5.22
2022-09-28T23:08:38.354Z,5.21
2022-09-28T23:11:06.196Z,5.17
2022-09-28T23:13:33.262Z,5.14
2022-09-28T23:16:05.675Z,5.12
2022-09-28T23:18:35.957Z,5.10
2022-09-28T23:21:05.769Z,5.06
2022-09-28T23:23:33.335Z,5.05
2022-09-28T23:26:09.489Z,5.02
2022-09-28T23:28:36.218Z,5.00
2022-09-28T23:31:11.229Z,4.92
2022-09-28T23:33:38.080Z,4.81
2022-09-28T23:36:05.076Z,4.71
2022-09-28T23:38:31.825Z,4.68
2022-09-28T23:40:58.591Z,4.65
2022-09-28T23:43:25.412Z,4.61
2022-09-28T23:45:52.099Z,4.55
2022-09-28T23:48:18.835Z,4.51
2022-09-28T23:50:45.774Z,4.50
2022-09-28T23:53:14.290Z,4.47
2022-09-28T23:55:42.975Z,4.47
2022-09-28T23:58:10.649Z,4.54
